createdAt,value
2022-11-28T00:01:36.212Z,100.00
2022-11-28T00:04:03.952Z,99.78
2022-11-28T00:06:31.049Z,99.68
2022-11-28T00:08:59.557Z,99.63
2022-11-28T00:11:26.558Z,99.86
2022-11-28T00:13:54.717Z,99.71
2022-11-28T00:16:23.218Z,100.00
2022-11-28T00:18:51.714Z,99.76
2022-11-28T00:21:19.149Z,100.00
2022-11-28T00:23:47.622Z,99.90
2022-11-28T00:26:17.729Z,100.00
2022-11-28T00:28:45.195Z,100.00
2022-11-28T00:31:14.598Z,100.00
2022-11-28T00:33:42.460Z,100.00
2022-11-28T00:36:10.051Z,100.00
2022-11-28T00:38:37.329Z,100.00
2022-11-28T00:41:06.821Z,100.00
2022-11-28T00:43:34.077Z,99.95
2022-11-28T00:46:01.531Z,100.00
2022-11-28T00:48:29.699Z,100.00
2022-11-28T00:51:07.579Z,100.00
2022-11-28T00:53:34.752Z,100.00
2022-11-28T00:56:01.968Z,99.86
2022-11-28T00:58:28.931Z,99.71
2022-11-28T01:00:56.250Z,99.92
2022-11-28T01:03:29.798Z,100.00
2022-11-28T01:05:56.600Z,99.48
2022-11-28T01:08:23.551Z,100.00
2022-11-28T01:10:52.144Z,99.98
2022-11-28T01:13:19.212Z,100.00
2022-11-28T01:15:46.417Z,100.00
2022-11-28T01:18:13.304Z,99.83
2022-11-28T01:20:40.238Z,99.40
2022-11-28T01:23:08.109Z,99.12
2022-11-28T01:25:35.503Z,99.11
2022-11-28T01:28:02.629Z,99.31
2022-11-28T01:30:29.746Z,99.36
2022-11-28T01:32:56.682Z,100.00
2022-11-28T01:35:24.478Z,100.00
2022-11-28T01:37:51.471Z,100.00
2022-11-28T01:40:18.312Z,100.00
2022-11-28T01:42:45.153Z,100.00
2022-11-28T01:45:40.683Z,100.00
2022-11-28T01:48:09.450Z,100.00
2022-11-28T01:50:36.898Z,100.00
2022-11-28T01:53:07.470Z,100.00
2022-11-28T01:55:41.148Z,100.00
2022-11-28T01:58:08.255Z,100.00
2022-11-28T02:00:35.106Z,100.00
2022-11-28T02:03:12.515Z,100.00
2022-11-28T02:05:40.103Z,100.00
2022-11-28T02:08:08.875Z,100.00
2022-11-28T02:11:01.167Z,100.00
2022-11-28T02:14:00.604Z,100.00
2022-11-28T02:16:39.684Z,100.00
2022-11-28T02:19:29.766Z,99.99
2022-11-28T02:22:20.221Z,100.00
2022-11-28T02:25:05.925Z,100.00
2022-11-28T02:28:29.938Z,100.00
2022-11-28T02:31:38.374Z,100.00
2022-11-28T02:34:10.819Z,100.00
2022-11-28T02:37:05.327Z,99.88
2022-11-28T02:39:45.359Z,99.68
2022-11-28T02:42:27.004Z,100.00
2022-11-28T02:45:09.333Z,100.00
2022-11-28T02:47:39.344Z,100.00
2022-11-28T02:50:16.114Z,99.76
2022-11-28T02:52:47.621Z,100.00
2022-11-28T02:55:15.599Z,100.00
2022-11-28T02:57:48.386Z,99.98
2022-11-28T03:00:43.956Z,99.90
2022-11-28T03:03:27.733Z,99.80
2022-11-28T03:06:13.937Z,100.00
2022-11-28T03:09:19.453Z,100.00
2022-11-28T03:12:15.826Z,100.00
2022-11-28T03:14:55.477Z,99.95
2022-11-28T03:18:05.551Z,100.00
2022-11-28T03:21:02.453Z,99.83
2022-11-28T03:23:37.424Z,99.79
2022-11-28T03:26:08.990Z,99.73
2022-11-28T03:28:43.757Z,99.36
2022-11-28T03:31:14.250Z,100.00
2022-11-28T03:33:48.818Z,100.00
2022-11-28T03:36:19.314Z,99.88
2022-11-28T03:38:49.940Z,100.00
2022-11-28T03:41:24.217Z,100.00
2022-11-28T03:43:52.027Z,100.00
2022-11-28T03:46:20.958Z,99.29
2022-11-28T03:48:57.795Z,99.83
2022-11-28T03:51:45.037Z,100.00
2022-11-28T03:54:16.083Z,99.96
2022-11-28T03:56:52.860Z,100.00
2022-11-28T03:59:33.969Z,100.00
2022-11-28T04:02:50.277Z,100.00
2022-11-28T04:05:30.001Z,100.00
2022-11-28T04:08:00.947Z,100.00
2022-11-28T04:10:30.054Z,100.00
2022-11-28T04:13:26.840Z,100.00
2022-11-28T04:15:58.557Z,100.00
2022-11-28T04:18:28.282Z,100.00
2022-11-28T04:21:01.179Z,100.00
2022-11-28T04:23:28.632Z,100.00
2022-11-28T04:26:26.229Z,100.00
2022-11-28T04:28:54.594Z,100.00
2022-11-28T04:31:23.091Z,100.00
2022-11-28T04:33:56.211Z,100.00
2022-11-28T04:36:24.455Z,100.00
2022-11-28T04:38:56.715Z,100.00
2022-11-28T04:41:36.642Z,100.00
2022-11-28T04:44:27.478Z,100.00
2022-11-28T04:46:56.796Z,100.00
2022-11-28T04:49:24.677Z,100.00
2022-11-28T04:52:08.061Z,100.00
2022-11-28T04:55:18.542Z,100.00
2022-11-28T04:57:49.649Z,100.00
2022-11-28T05:00:21.011Z,100.00
2022-11-28T05:02:51.434Z,100.00
2022-11-28T05:05:25.327Z,100.00
2022-11-28T05:07:53.902Z,100.00
2022-11-28T05:10:22.431Z,100.00
2022-11-28T05:12:49.530Z,100.00
2022-11-28T05:15:19.449Z,100.00
2022-11-28T05:17:47.128Z,100.00
2022-11-28T05:20:14.239Z,100.00
2022-11-28T05:22:41.518Z,100.00
2022-11-28T05:25:10.260Z,100.00
2022-11-28T05:27:37.721Z,100.00
2022-11-28T05:30:06.844Z,100.00
2022-11-28T05:32:33.654Z,100.00
2022-11-28T05:35:00.688Z,100.00
2022-11-28T05:37:28.233Z,100.00
2022-11-28T05:39:55.565Z,100.00
2022-11-28T05:42:22.469Z,100.00
2022-11-28T05:44:49.886Z,100.00
2022-11-28T05:47:16.740Z,100.00
2022-11-28T05:49:44.373Z,100.00
2022-11-28T05:52:11.469Z,100.00
2022-11-28T05:54:38.621Z,100.00
2022-11-28T05:57:09.013Z,100.00
2022-11-28T05:59:35.888Z,100.00
2022-11-28T06:02:03.101Z,99.65
2022-11-28T06:04:29.938Z,100.00
2022-11-28T06:06:56.962Z,100.00
2022-11-28T06:09:26.090Z,100.00
2022-11-28T06:11:53.490Z,100.00
2022-11-28T06:14:20.601Z,100.00
2022-11-28T06:16:47.610Z,100.00
2022-11-28T06:19:15.626Z,100.00
2022-11-28T06:21:42.848Z,100.00
2022-11-28T06:24:09.939Z,100.00
2022-11-28T06:26:37.292Z,100.00
2022-11-28T06:29:04.607Z,100.00
2022-11-28T06:31:31.705Z,100.00
2022-11-28T06:33:58.773Z,100.00
2022-11-28T06:36:26.662Z,100.00
2022-11-28T06:38:54.501Z,100.00
2022-11-28T06:41:23.222Z,100.00
2022-11-28T06:43:50.776Z,100.00
2022-11-28T06:46:20.337Z,100.00
2022-11-28T06:48:48.185Z,100.00
2022-11-28T06:51:15.232Z,100.00
2022-11-28T06:53:42.875Z,100.00
2022-11-28T06:56:15.278Z,100.00
2022-11-28T06:58:43.165Z,100.00
2022-11-28T07:01:16.247Z,100.00
2022-11-28T07:03:44.685Z,100.00
2022-11-28T07:06:12.857Z,100.00
2022-11-28T07:08:39.896Z,100.00
2022-11-28T07:11:11.891Z,100.00
2022-11-28T07:13:39.738Z,100.00
2022-11-28T07:16:07.785Z,100.00
2022-11-28T07:18:35.030Z,100.00
2022-11-28T07:21:02.449Z,100.00
2022-11-28T07:23:29.501Z,100.00
2022-11-28T07:26:00.556Z,100.00
2022-11-28T07:28:28.541Z,100.00
2022-11-28T07:31:11.324Z,100.00
2022-11-28T07:33:39.996Z,100.00
2022-11-28T07:36:10.611Z,100.00
2022-11-28T07:38:37.526Z,100.00
2022-11-28T07:41:09.818Z,100.00
2022-11-28T07:43:37.323Z,100.00
2022-11-28T07:46:08.940Z,100.00
2022-11-28T07:48:36.194Z,100.00
2022-11-28T07:51:11.651Z,100.00
2022-11-28T07:53:38.942Z,100.00
2022-11-28T07:56:08.665Z,100.00
2022-11-28T07:58:37.043Z,100.00
2022-11-28T08:01:24.549Z,100.00
2022-11-28T08:03:53.052Z,100.00
2022-11-28T08:06:21.956Z,100.00
2022-11-28T08:08:49.466Z,100.00
2022-11-28T08:11:18.208Z,100.00
2022-11-28T08:13:45.477Z,100.00
2022-11-28T08:16:15.409Z,100.00
2022-11-28T08:18:42.408Z,100.00
2022-11-28T08:21:15.702Z,100.00
2022-11-28T08:23:42.981Z,100.00
2022-11-28T08:26:11.567Z,100.00
2022-11-28T08:28:38.302Z,100.00
2022-11-28T08:31:33.109Z,100.00
2022-11-28T08:34:00.849Z,100.00
2022-11-28T08:36:29.511Z,100.00
2022-11-28T08:39:22.787Z,100.00
2022-11-28T08:41:43.679Z,100.00
2022-11-28T08:44:10.660Z,100.00
2022-11-28T08:46:37.441Z,100.00
2022-11-28T08:49:04.848Z,100.00
2022-11-28T08:51:32.011Z,100.00
2022-11-28T08:54:00.086Z,100.00
2022-11-28T08:56:27.637Z,100.00
2022-11-28T08:58:55.278Z,100.00
2022-11-28T09:01:24.888Z,100.00
2022-11-28T09:03:53.260Z,100.00
2022-11-28T09:06:21.402Z,100.00
2022-11-28T09:08:49.462Z,100.00
2022-11-28T09:11:18.751Z,100.00
2022-11-28T09:13:46.100Z,100.00
2022-11-28T09:16:13.784Z,100.00
2022-11-28T09:18:41.260Z,100.00
2022-11-28T09:21:09.818Z,100.00
2022-11-28T09:23:38.249Z,100.00
2022-11-28T09:26:19.454Z,100.00
2022-11-28T09:28:46.397Z,100.00
2022-11-28T09:31:15.159Z,99.73
2022-11-28T09:33:42.859Z,100.00
2022-11-28T09:36:12.409Z,99.62
2022-11-28T09:38:39.864Z,100.00
2022-11-28T09:41:28.935Z,99.48
2022-11-28T09:44:19.125Z,99.10
2022-11-28T09:46:47.503Z,98.61
2022-11-28T09:49:41.735Z,97.62
2022-11-28T09:52:46.970Z,98.44
2022-11-28T09:55:39.208Z,97.78
2022-11-28T09:58:13.175Z,97.73
2022-11-28T10:00:51.431Z,97.66
2022-11-28T10:03:39.054Z,96.31
2022-11-28T10:06:46.395Z,96.25
2022-11-28T10:09:31.668Z,96.52
2022-11-28T10:12:21.582Z,95.47
2022-11-28T10:14:57.946Z,95.38
2022-11-28T10:18:00.910Z,95.98
2022-11-28T10:20:32.227Z,97.05
2022-11-28T10:23:17.045Z,97.63
2022-11-28T10:25:55.798Z,97.58
2022-11-28T10:28:27.401Z,97.28
2022-11-28T10:31:00.235Z,97.43
2022-11-28T10:34:05.233Z,97.46
2022-11-28T10:36:35.605Z,97.95
2022-11-28T10:39:11.367Z,97.95
2022-11-28T10:42:14.543Z,96.88
2022-11-28T10:45:24.137Z,97.42
2022-11-28T10:48:38.073Z,97.03
2022-11-28T10:51:22.176Z,96.80
2022-11-28T10:54:05.436Z,96.30
2022-11-28T10:56:40.613Z,95.96
2022-11-28T10:59:45.260Z,95.77
2022-11-28T11:02:41.628Z,96.50
2022-11-28T11:05:14.445Z,95.52
2022-11-28T11:07:47.358Z,95.56
2022-11-28T11:10:19.688Z,95.15
2022-11-28T11:12:47.408Z,95.67
2022-11-28T11:15:33.173Z,95.62
2022-11-28T11:18:22.369Z,95.72
2022-11-28T11:20:49.909Z,95.61
2022-11-28T11:23:22.060Z,95.63
2022-11-28T11:25:55.731Z,95.62
2022-11-28T11:28:39.165Z,95.26
2022-11-28T11:31:15.549Z,95.60
2022-11-28T11:33:42.878Z,95.67
2022-11-28T11:36:45.627Z,95.97
2022-11-28T11:39:25.725Z,95.09
2022-11-28T11:42:23.113Z,95.01
2022-11-28T11:44:50.419Z,95.38
2022-11-28T11:47:17.658Z,94.27
2022-11-28T11:49:49.142Z,94.17
2022-11-28T11:52:27.600Z,94.34
2022-11-28T11:55:13.560Z,93.72
2022-11-28T11:57:46.611Z,93.43
2022-11-28T12:00:19.977Z,93.68
2022-11-28T12:02:54.633Z,94.78
2022-11-28T12:05:27.981Z,95.23
2022-11-28T12:08:01.550Z,94.24
2022-11-28T12:10:31.818Z,93.91
2022-11-28T12:12:58.947Z,94.46
2022-11-28T12:15:49.516Z,94.82
2022-11-28T12:18:27.777Z,94.32
2022-11-28T12:21:18.783Z,94.88
2022-11-28T12:24:10.073Z,94.80
2022-11-28T12:26:44.943Z,94.55
2022-11-28T12:29:28.001Z,94.71
2022-11-28T12:32:34.488Z,94.81
2022-11-28T12:35:32.627Z,94.55
2022-11-28T12:39:04.204Z,94.92
2022-11-28T12:41:57.192Z,95.58
2022-11-28T12:44:48.837Z,95.73
2022-11-28T12:47:42.135Z,95.63
2022-11-28T12:50:38.244Z,96.06
2022-11-28T12:53:31.302Z,95.74
2022-11-28T12:56:39.765Z,95.47
2022-11-28T12:59:31.265Z,96.26
2022-11-28T13:02:35.746Z,96.28
2022-11-28T13:05:26.296Z,96.52
2022-11-28T13:08:48.848Z,96.50
2022-11-28T13:12:01.077Z,95.43
2022-11-28T13:14:49.040Z,96.16
2022-11-28T13:17:44.343Z,95.59
2022-11-28T13:20:28.364Z,95.74
2022-11-28T13:23:19.393Z,96.35
2022-11-28T13:25:56.065Z,96.02
2022-11-28T13:28:51.401Z,95.75
2022-11-28T13:31:34.881Z,95.72
2022-11-28T13:34:02.026Z,96.37
2022-11-28T13:40:05.979Z,96.52
2022-11-28T13:45:39.224Z,97.04
2022-11-28T13:49:06.204Z,96.49
2022-11-28T13:51:30.969Z,96.23
2022-11-28T13:54:25.320Z,96.57
2022-11-28T13:57:29.592Z,96.71
2022-11-28T14:00:01.657Z,96.48
2022-11-28T14:02:45.042Z,96.60
2022-11-28T14:05:28.004Z,96.98
2022-11-28T14:07:56.300Z,96.16
2022-11-28T14:11:06.939Z,96.15
2022-11-28T14:14:35.577Z,97.20
2022-11-28T14:17:28.686Z,97.57
2022-11-28T14:20:35.190Z,97.17
2022-11-28T14:23:22.260Z,97.12
2022-11-28T14:25:50.978Z,97.14
2022-11-28T14:28:36.952Z,97.51
2022-11-28T14:31:31.444Z,97.70
2022-11-28T14:34:01.279Z,97.25
2022-11-28T14:36:31.158Z,97.03
2022-11-28T14:39:02.633Z,96.60
2022-11-28T14:41:29.867Z,97.27
2022-11-28T14:44:35.505Z,97.26
2022-11-28T14:47:39.659Z,97.05
2022-11-28T14:50:06.451Z,97.46
2022-11-28T14:52:39.624Z,97.63
2022-11-28T14:55:19.147Z,97.81
2022-11-28T14:58:03.224Z,97.33
2022-11-28T15:00:50.089Z,97.16
2022-11-28T15:03:35.802Z,98.27
2022-11-28T15:06:11.239Z,98.26
2022-11-28T15:09:12.176Z,97.58
2022-11-28T15:12:11.751Z,98.00
2022-11-28T15:14:38.914Z,97.91
2022-11-28T15:17:09.902Z,97.83
2022-11-28T15:19:47.250Z,98.14
2022-11-28T15:22:41.480Z,98.59
2022-11-28T15:25:23.070Z,98.34
2022-11-28T15:27:50.181Z,98.51
2022-11-28T15:30:26.780Z,98.59
2022-11-28T15:32:58.925Z,98.58
2022-11-28T15:35:26.973Z,99.02
2022-11-28T15:37:55.791Z,99.26
2022-11-28T15:40:30.261Z,98.63
2022-11-28T15:42:57.409Z,98.75
2022-11-28T15:45:32.772Z,99.20
2022-11-28T15:47:59.938Z,99.14
2022-11-28T15:50:29.705Z,99.15
2022-11-28T15:53:15.599Z,98.63
2022-11-28T15:55:42.873Z,98.83
2022-11-28T15:58:23.692Z,98.27
2022-11-28T16:01:29.050Z,98.86
2022-11-28T16:04:14.111Z,99.13
2022-11-28T16:06:43.155Z,99.20
2022-11-28T16:09:39.495Z,98.93
2022-11-28T16:12:13.368Z,98.52
2022-11-28T16:14:44.852Z,98.56
2022-11-28T16:17:25.509Z,98.46
2022-11-28T16:19:53.284Z,98.56
2022-11-28T16:22:22.482Z,98.08
2022-11-28T16:24:51.709Z,98.06
2022-11-28T16:27:38.201Z,98.05
2022-11-28T16:30:44.916Z,98.34
2022-11-28T16:33:56.918Z,98.84
2022-11-28T16:36:27.183Z,98.42
2022-11-28T16:39:09.524Z,98.56
2022-11-28T16:41:37.629Z,98.98
2022-11-28T16:44:07.964Z,99.07
2022-11-28T16:46:48.944Z,98.83
2022-11-28T16:49:39.958Z,99.03
2022-11-28T16:52:49.386Z,98.57
2022-11-28T16:55:40.358Z,98.72
2022-11-28T16:58:21.858Z,98.95
2022-11-28T17:01:01.102Z,98.60
2022-11-28T17:04:00.589Z,98.43
2022-11-28T17:06:37.142Z,98.55
2022-11-28T17:09:09.221Z,99.05
2022-11-28T17:11:37.855Z,99.50
2022-11-28T17:14:10.098Z,99.00
2022-11-28T17:16:40.020Z,99.04
2022-11-28T17:19:07.295Z,99.06
2022-11-28T17:22:00.714Z,99.17
2022-11-28T17:24:32.225Z,99.07
2022-11-28T17:26:59.072Z,98.74
2022-11-28T17:29:26.245Z,98.45
2022-11-28T17:31:55.459Z,98.79
2022-11-28T17:34:24.686Z,98.90
2022-11-28T17:36:52.018Z,98.23
2022-11-28T17:39:20.505Z,98.51
2022-11-28T17:41:47.828Z,98.96
2022-11-28T17:44:18.698Z,98.66
2022-11-28T17:46:45.885Z,98.80
2022-11-28T17:49:13.419Z,98.78
2022-11-28T17:51:40.497Z,99.24
2022-11-28T17:54:07.469Z,99.73
2022-11-28T17:56:34.350Z,100.00
2022-11-28T17:59:01.466Z,100.00
2022-11-28T18:01:30.916Z,99.69
2022-11-28T18:03:58.109Z,99.50
2022-11-28T18:06:25.679Z,99.56
2022-11-28T18:08:52.657Z,99.71
2022-11-28T18:11:21.006Z,100.00
2022-11-28T18:13:48.508Z,99.99
2022-11-28T18:16:18.117Z,100.00
2022-11-28T18:18:45.449Z,100.00
2022-11-28T18:21:13.352Z,100.00
2022-11-28T18:23:44.571Z,99.86
2022-11-28T18:26:14.099Z,99.54
2022-11-28T18:28:40.890Z,99.02
2022-11-28T18:31:12.899Z,99.33
2022-11-28T18:33:40.406Z,99.91
2022-11-28T18:36:16.241Z,99.61
2022-11-28T18:38:45.342Z,99.27
2022-11-28T18:41:14.669Z,99.74
2022-11-28T18:43:42.175Z,99.61
2022-11-28T18:46:12.039Z,99.69
2022-11-28T18:48:46.449Z,100.00
2022-11-28T18:51:17.745Z,100.00
2022-11-28T18:53:45.326Z,100.00
2022-11-28T18:56:12.791Z,100.00
2022-11-28T18:58:41.492Z,100.00
2022-11-28T19:01:13.301Z,100.00
2022-11-28T19:03:40.528Z,100.00
2022-11-28T19:06:09.218Z,100.00
2022-11-28T19:08:36.639Z,100.00
2022-11-28T19:11:09.827Z,100.00
2022-11-28T19:13:37.855Z,100.00
2022-11-28T19:16:06.800Z,100.00
2022-11-28T19:18:34.271Z,100.00
2022-11-28T19:21:01.226Z,100.00
2022-11-28T19:23:29.560Z,100.00
2022-11-28T19:25:56.558Z,100.00
2022-11-28T19:28:23.539Z,100.00
2022-11-28T19:30:50.342Z,100.00
2022-11-28T19:33:17.186Z,100.00
2022-11-28T19:35:44.220Z,100.00
2022-11-28T19:38:11.606Z,100.00
2022-11-28T19:40:38.543Z,100.00
2022-11-28T19:43:05.649Z,100.00
2022-11-28T19:45:32.503Z,100.00
2022-11-28T19:47:59.752Z,100.00
2022-11-28T19:50:26.685Z,100.00
2022-11-28T19:52:53.577Z,100.00
2022-11-28T19:55:20.303Z,100.00
2022-11-28T19:57:47.393Z,100.00
2022-11-28T20:00:15.481Z,100.00
2022-11-28T20:02:42.323Z,100.00
2022-11-28T20:05:09.727Z,100.00
2022-11-28T20:07:36.592Z,100.00
2022-11-28T20:10:03.703Z,100.00
2022-11-28T20:12:30.655Z,100.00
2022-11-28T20:14:57.875Z,100.00
2022-11-28T20:17:25.185Z,100.00
2022-11-28T20:19:52.215Z,100.00
2022-11-28T20:22:20.288Z,100.00
2022-11-28T20:24:47.045Z,100.00
2022-11-28T20:27:13.885Z,100.00
2022-11-28T20:29:40.763Z,100.00
2022-11-28T20:32:07.730Z,100.00
2022-11-28T20:34:34.446Z,100.00
2022-11-28T20:37:02.180Z,100.00
2022-11-28T20:39:29.027Z,100.00
2022-11-28T20:41:55.895Z,100.00
2022-11-28T20:44:22.957Z,100.00
2022-11-28T20:46:50.082Z,100.00
2022-11-28T20:49:17.467Z,100.00
2022-11-28T20:51:44.390Z,100.00
2022-11-28T20:54:13.916Z,100.00
2022-11-28T20:57:12.963Z,100.00
2022-11-28T20:59:28.993Z,100.00
2022-11-28T21:01:55.983Z,100.00
2022-11-28T21:04:22.963Z,100.00
2022-11-28T21:06:50.027Z,100.00
2022-11-28T21:09:18.654Z,100.00
2022-11-28T21:12:02.835Z,100.00
2022-11-28T21:14:29.709Z,100.00
2022-11-28T21:16:57.516Z,100.00
2022-11-28T21:19:24.696Z,100.00
2022-11-28T21:21:51.772Z,100.00
2022-11-28T21:24:18.678Z,100.00
2022-11-28T21:26:51.319Z,100.00
2022-11-28T21:29:21.088Z,100.00
2022-11-28T21:31:48.465Z,100.00
2022-11-28T21:34:17.027Z,100.00
2022-11-28T21:36:44.171Z,100.00
2022-11-28T21:39:14.118Z,100.00
2022-11-28T21:41:41.051Z,100.00
2022-11-28T21:44:08.115Z,100.00
2022-11-28T21:46:34.930Z,100.00
2022-11-28T21:49:02.250Z,100.00
2022-11-28T21:51:29.269Z,100.00
2022-11-28T21:53:57.814Z,100.00
2022-11-28T21:56:25.040Z,100.00
2022-11-28T21:58:52.372Z,100.00
2022-11-28T22:01:21.444Z,100.00
2022-11-28T22:03:48.720Z,100.00
2022-11-28T22:06:20.806Z,100.00
2022-11-28T22:08:48.897Z,100.00
2022-11-28T22:11:16.626Z,100.00
2022-11-28T22:13:46.087Z,100.00
2022-11-28T22:16:18.953Z,100.00
2022-11-28T22:18:46.774Z,100.00
2022-11-28T22:21:49.752Z,100.00
2022-11-28T22:24:02.823Z,100.00
2022-11-28T22:26:29.744Z,100.00
2022-11-28T22:28:56.654Z,100.00
2022-11-28T22:31:23.689Z,100.00
2022-11-28T22:33:50.800Z,100.00
2022-11-28T22:36:20.007Z,100.00
2022-11-28T22:38:48.659Z,100.00
2022-11-28T22:41:27.927Z,100.00
2022-11-28T22:43:57.548Z,100.00
2022-11-28T22:46:24.389Z,100.00
2022-11-28T22:48:52.416Z,100.00
2022-11-28T22:51:22.692Z,100.00
2022-11-28T22:53:53.815Z,100.00
2022-11-28T22:56:21.630Z,100.00
2022-11-28T22:58:49.077Z,100.00
2022-11-28T23:01:19.045Z,100.00
2022-11-28T23:03:46.770Z,100.00
2022-11-28T23:06:16.532Z,100.00
2022-11-28T23:08:43.889Z,100.00
2022-11-28T23:11:16.158Z,100.00
2022-11-28T23:13:43.630Z,100.00
2022-11-28T23:16:24.922Z,100.00
2022-11-28T23:18:54.458Z,100.00
2022-11-28T23:21:22.413Z,100.00
2022-11-28T23:23:49.404Z,100.00
2022-11-28T23:26:21.462Z,100.00
2022-11-28T23:28:48.349Z,100.00
2022-11-28T23:31:20.802Z,100.00
2022-11-28T23:33:48.156Z,100.00
2022-11-28T23:36:26.186Z,100.00
2022-11-28T23:38:58.282Z,100.00
2022-11-28T23:41:26.115Z,100.00
2022-11-28T23:43:53.046Z,100.00
2022-11-28T23:46:20.887Z,100.00
2022-11-28T23:48:48.807Z,100.00
2022-11-28T23:51:18.009Z,100.00
2022-11-28T23:53:45.244Z,100.00
2022-11-28T23:56:14.461Z,100.00
2022-11-28T23:58:42.209Z,100.00
